sensor_id;sensor_type;location;lat;lon;timestamp;P1;durP1;ratioP1;P2;durP2;ratioP2
31990;SDS011;18508;49.386;8.370;2023-06-24T00:02:02;9.75;;;5.90;;
31990;SDS011;18508;49.386;8.370;2023-06-24T00:04:32;10.50;;;6.32;;
31990;SDS011;18508;49.386;8.370;2023-06-24T00:07:01;8.93;;;6.18;;
31990;SDS011;18508;49.386;8.370;2023-06-24T00:09:30;9.82;;;5.78;;
31990;SDS011;18508;49.386;8.370;2023-06-24T00:11:59;9.45;;;5.72;;
31990;SDS011;18508;49.386;8.370;2023-06-24T00:14:28;8.23;;;5.43;;
31990;SDS011;18508;49.386;8.370;2023-06-24T00:16:56;9.77;;;5.50;;
31990;SDS011;18508;49.386;8.370;2023-06-24T00:19:25;10.25;;;6.20;;
31990;SDS011;18508;49.386;8.370;2023-06-24T00:21:57;6.90;;;5.18;;
31990;SDS011;18508;49.386;8.370;2023-06-24T00:24:29;9.25;;;5.88;;
31990;SDS011;18508;49.386;8.370;2023-06-24T00:26:57;10.25;;;6.75;;
31990;SDS011;18508;49.386;8.370;2023-06-24T00:29:26;9.65;;;6.28;;
31990;SDS011;18508;49.386;8.370;2023-06-24T00:31:56;8.75;;;5.72;;
31990;SDS011;18508;49.386;8.370;2023-06-24T00:34:25;9.70;;;5.60;;
31990;SDS011;18508;49.386;8.370;2023-06-24T00:36:53;11.05;;;6.20;;
31990;SDS011;18508;49.386;8.370;2023-06-24T00:39:26;9.90;;;5.90;;
31990;SDS011;18508;49.386;8.370;2023-06-24T00:41:54;8.27;;;6.13;;
31990;SDS011;18508;49.386;8.370;2023-06-24T00:44:23;9.85;;;6.47;;
31990;SDS011;18508;49.386;8.370;2023-06-24T00:46:53;10.05;;;6.30;;
31990;SDS011;18508;49.386;8.370;2023-06-24T00:49:24;9.18;;;5.80;;
31990;SDS011;18508;49.386;8.370;2023-06-24T00:51:53;8.57;;;6.03;;
31990;SDS011;18508;49.386;8.370;2023-06-24T00:54:23;8.27;;;5.60;;
31990;SDS011;18508;49.386;8.370;2023-06-24T00:56:57;9.43;;;5.90;;
31990;SDS011;18508;49.386;8.370;2023-06-24T00:59:27;8.43;;;5.45;;
31990;SDS011;18508;49.386;8.370;2023-06-24T01:01:58;9.93;;;5.63;;
31990;SDS011;18508;49.386;8.370;2023-06-24T01:04:28;9.75;;;5.40;;
31990;SDS011;18508;49.386;8.370;2023-06-24T01:06:57;9.07;;;6.18;;
31990;SDS011;18508;49.386;8.370;2023-06-24T01:09:27;10.52;;;6.63;;
31990;SDS011;18508;49.386;8.370;2023-06-24T01:11:56;10.98;;;6.50;;
31990;SDS011;18508;49.386;8.370;2023-06-24T01:14:26;9.00;;;6.18;;
31990;SDS011;18508;49.386;8.370;2023-06-24T01:16:58;10.43;;;6.15;;
31990;SDS011;18508;49.386;8.370;2023-06-24T01:19:38;11.18;;;6.40;;
31990;SDS011;18508;49.386;8.370;2023-06-24T01:22:40;8.98;;;5.60;;
31990;SDS011;18508;49.386;8.370;2023-06-24T01:25:38;10.45;;;6.65;;
31990;SDS011;18508;49.386;8.370;2023-06-24T01:28:20;9.60;;;6.15;;
31990;SDS011;18508;49.386;8.370;2023-06-24T01:31:15;10.20;;;6.45;;
31990;SDS011;18508;49.386;8.370;2023-06-24T01:33:45;10.23;;;7.32;;
31990;SDS011;18508;49.386;8.370;2023-06-24T01:38:48;9.40;;;6.75;;
31990;SDS011;18508;49.386;8.370;2023-06-24T01:41:24;8.95;;;6.05;;
31990;SDS011;18508;49.386;8.370;2023-06-24T01:43:53;9.23;;;5.97;;
31990;SDS011;18508;49.386;8.370;2023-06-24T01:46:32;10.13;;;5.90;;
31990;SDS011;18508;49.386;8.370;2023-06-24T01:49:01;9.35;;;6.32;;
31990;SDS011;18508;49.386;8.370;2023-06-24T01:51:32;8.48;;;6.18;;
31990;SDS011;18508;49.386;8.370;2023-06-24T01:54:06;11.85;;;6.35;;
31990;SDS011;18508;49.386;8.370;2023-06-24T01:56:39;9.57;;;6.28;;
31990;SDS011;18508;49.386;8.370;2023-06-24T01:59:13;9.75;;;7.30;;
31990;SDS011;18508;49.386;8.370;2023-06-24T02:01:47;10.35;;;7.15;;
31990;SDS011;18508;49.386;8.370;2023-06-24T02:04:25;12.27;;;7.03;;
31990;SDS011;18508;49.386;8.370;2023-06-24T02:06:59;13.57;;;7.13;;
31990;SDS011;18508;49.386;8.370;2023-06-24T02:09:31;10.13;;;7.30;;
31990;SDS011;18508;49.386;8.370;2023-06-24T02:12:02;12.82;;;8.43;;
31990;SDS011;18508;49.386;8.370;2023-06-24T02:14:32;15.23;;;8.40;;
31990;SDS011;18508;49.386;8.370;2023-06-24T02:17:05;18.08;;;8.77;;
31990;SDS011;18508;49.386;8.370;2023-06-24T02:19:37;16.80;;;8.57;;
31990;SDS011;18508;49.386;8.370;2023-06-24T02:22:06;15.35;;;7.53;;
31990;SDS011;18508;49.386;8.370;2023-06-24T02:24:37;13.18;;;7.65;;
31990;SDS011;18508;49.386;8.370;2023-06-24T02:27:07;21.92;;;8.25;;
31990;SDS011;18508;49.386;8.370;2023-06-24T02:29:37;18.73;;;8.73;;
31990;SDS011;18508;49.386;8.370;2023-06-24T02:32:08;13.35;;;7.13;;
31990;SDS011;18508;49.386;8.370;2023-06-24T02:34:37;10.55;;;6.97;;
31990;SDS011;18508;49.386;8.370;2023-06-24T02:37:07;16.90;;;8.25;;
31990;SDS011;18508;49.386;8.370;2023-06-24T02:39:36;17.45;;;8.15;;
31990;SDS011;18508;49.386;8.370;2023-06-24T02:42:11;10.68;;;6.57;;
31990;SDS011;18508;49.386;8.370;2023-06-24T02:44:39;12.00;;;7.25;;
31990;SDS011;18508;49.386;8.370;2023-06-24T02:47:10;11.13;;;6.40;;
31990;SDS011;18508;49.386;8.370;2023-06-24T02:49:40;11.43;;;6.85;;
31990;SDS011;18508;49.386;8.370;2023-06-24T02:52:12;11.55;;;6.80;;
31990;SDS011;18508;49.386;8.370;2023-06-24T02:54:42;12.15;;;7.30;;
31990;SDS011;18508;49.386;8.370;2023-06-24T02:57:11;9.73;;;6.47;;
31990;SDS011;18508;49.386;8.370;2023-06-24T02:59:42;11.43;;;7.47;;
31990;SDS011;18508;49.386;8.370;2023-06-24T03:02:13;11.02;;;7.07;;
31990;SDS011;18508;49.386;8.370;2023-06-24T03:04:43;10.90;;;7.15;;
31990;SDS011;18508;49.386;8.370;2023-06-24T03:07:14;10.45;;;6.65;;
31990;SDS011;18508;49.386;8.370;2023-06-24T03:09:43;9.93;;;6.88;;
31990;SDS011;18508;49.386;8.370;2023-06-24T03:12:12;12.23;;;8.20;;
31990;SDS011;18508;49.386;8.370;2023-06-24T03:14:40;11.98;;;7.30;;
31990;SDS011;18508;49.386;8.370;2023-06-24T03:17:09;11.18;;;7.40;;
31990;SDS011;18508;49.386;8.370;2023-06-24T03:19:40;10.88;;;7.53;;
31990;SDS011;18508;49.386;8.370;2023-06-24T03:22:10;11.35;;;7.43;;
31990;SDS011;18508;49.386;8.370;2023-06-24T03:24:43;10.55;;;7.63;;
31990;SDS011;18508;49.386;8.370;2023-06-24T03:27:11;11.65;;;7.47;;
31990;SDS011;18508;49.386;8.370;2023-06-24T03:29:40;13.85;;;7.30;;
31990;SDS011;18508;49.386;8.370;2023-06-24T03:32:08;11.27;;;8.00;;
31990;SDS011;18508;49.386;8.370;2023-06-24T03:34:40;11.05;;;7.72;;
31990;SDS011;18508;49.386;8.370;2023-06-24T03:37:09;11.35;;;6.85;;
31990;SDS011;18508;49.386;8.370;2023-06-24T03:39:38;13.15;;;7.65;;
31990;SDS011;18508;49.386;8.370;2023-06-24T03:42:07;11.43;;;7.43;;
31990;SDS011;18508;49.386;8.370;2023-06-24T03:44:35;12.77;;;8.07;;
31990;SDS011;18508;49.386;8.370;2023-06-24T03:47:06;16.20;;;8.27;;
31990;SDS011;18508;49.386;8.370;2023-06-24T03:49:36;12.40;;;7.80;;
31990;SDS011;18508;49.386;8.370;2023-06-24T03:52:06;11.60;;;7.78;;
31990;SDS011;18508;49.386;8.370;2023-06-24T03:54:35;11.93;;;7.60;;
31990;SDS011;18508;49.386;8.370;2023-06-24T03:57:05;12.38;;;7.50;;
31990;SDS011;18508;49.386;8.370;2023-06-24T03:59:35;14.98;;;8.00;;
31990;SDS011;18508;49.386;8.370;2023-06-24T04:02:04;11.00;;;7.57;;
31990;SDS011;18508;49.386;8.370;2023-06-24T04:04:35;12.98;;;8.27;;
31990;SDS011;18508;49.386;8.370;2023-06-24T04:07:06;10.38;;;7.60;;
31990;SDS011;18508;49.386;8.370;2023-06-24T04:09:36;14.50;;;7.53;;
31990;SDS011;18508;49.386;8.370;2023-06-24T04:12:07;10.98;;;7.38;;
31990;SDS011;18508;49.386;8.370;2023-06-24T04:14:37;14.85;;;7.82;;
31990;SDS011;18508;49.386;8.370;2023-06-24T04:17:06;12.77;;;7.82;;
31990;SDS011;18508;49.386;8.370;2023-06-24T04:19:35;10.95;;;7.38;;
31990;SDS011;18508;49.386;8.370;2023-06-24T04:22:04;12.10;;;8.30;;
31990;SDS011;18508;49.386;8.370;2023-06-24T04:24:34;11.80;;;8.02;;
31990;SDS011;18508;49.386;8.370;2023-06-24T04:27:02;12.05;;;6.75;;
31990;SDS011;18508;49.386;8.370;2023-06-24T04:29:31;10.50;;;7.60;;
31990;SDS011;18508;49.386;8.370;2023-06-24T04:32:00;11.23;;;7.60;;
31990;SDS011;18508;49.386;8.370;2023-06-24T04:34:32;13.38;;;7.65;;
31990;SDS011;18508;49.386;8.370;2023-06-24T04:37:02;15.35;;;7.97;;
31990;SDS011;18508;49.386;8.370;2023-06-24T04:39:32;13.18;;;8.20;;
31990;SDS011;18508;49.386;8.370;2023-06-24T04:42:01;11.93;;;7.95;;
31990;SDS011;18508;49.386;8.370;2023-06-24T04:44:29;11.88;;;8.05;;
31990;SDS011;18508;49.386;8.370;2023-06-24T04:46:58;13.52;;;8.25;;
31990;SDS011;18508;49.386;8.370;2023-06-24T04:49:27;18.15;;;7.93;;
31990;SDS011;18508;49.386;8.370;2023-06-24T04:51:55;11.77;;;7.35;;
31990;SDS011;18508;49.386;8.370;2023-06-24T04:54:25;11.27;;;7.50;;
31990;SDS011;18508;49.386;8.370;2023-06-24T04:56:56;13.80;;;8.02;;
31990;SDS011;18508;49.386;8.370;2023-06-24T04:59:25;11.50;;;7.53;;
31990;SDS011;18508;49.386;8.370;2023-06-24T05:01:54;13.65;;;7.90;;
31990;SDS011;18508;49.386;8.370;2023-06-24T05:04:22;12.60;;;7.85;;
31990;SDS011;18508;49.386;8.370;2023-06-24T05:06:51;12.48;;;7.65;;
31990;SDS011;18508;49.386;8.370;2023-06-24T05:09:20;12.27;;;7.72;;
31990;SDS011;18508;49.386;8.370;2023-06-24T05:11:49;10.63;;;7.38;;
31990;SDS011;18508;49.386;8.370;2023-06-24T05:14:18;14.00;;;8.60;;
31990;SDS011;18508;49.386;8.370;2023-06-24T05:16:47;13.60;;;7.90;;
31990;SDS011;18508;49.386;8.370;2023-06-24T05:19:15;12.63;;;7.40;;
31990;SDS011;18508;49.386;8.370;2023-06-24T05:21:45;14.25;;;8.13;;
31990;SDS011;18508;49.386;8.370;2023-06-24T05:24:13;12.10;;;8.20;;
31990;SDS011;18508;49.386;8.370;2023-06-24T05:26:42;14.48;;;7.65;;
31990;SDS011;18508;49.386;8.370;2023-06-24T05:29:11;10.82;;;7.45;;
31990;SDS011;18508;49.386;8.370;2023-06-24T05:31:42;12.88;;;7.82;;
31990;SDS011;18508;49.386;8.370;2023-06-24T05:34:11;13.10;;;8.73;;
31990;SDS011;18508;49.386;8.370;2023-06-24T05:36:40;12.32;;;7.75;;
31990;SDS011;18508;49.386;8.370;2023-06-24T05:39:08;12.07;;;8.57;;
31990;SDS011;18508;49.386;8.370;2023-06-24T05:41:37;14.77;;;8.05;;
31990;SDS011;18508;49.386;8.370;2023-06-24T05:44:07;12.10;;;7.75;;
31990;SDS011;18508;49.386;8.370;2023-06-24T05:46:37;9.50;;;7.00;;
31990;SDS011;18508;49.386;8.370;2023-06-24T05:49:07;13.52;;;8.27;;
31990;SDS011;18508;49.386;8.370;2023-06-24T05:51:35;13.45;;;7.72;;
31990;SDS011;18508;49.386;8.370;2023-06-24T05:54:03;10.55;;;7.43;;
31990;SDS011;18508;49.386;8.370;2023-06-24T05:56:34;10.95;;;7.60;;
31990;SDS011;18508;49.386;8.370;2023-06-24T05:59:05;11.60;;;7.95;;
31990;SDS011;18508;49.386;8.370;2023-06-24T06:01:34;12.00;;;7.00;;
31990;SDS011;18508;49.386;8.370;2023-06-24T06:04:02;13.50;;;7.50;;
31990;SDS011;18508;49.386;8.370;2023-06-24T06:06:32;13.20;;;7.60;;
31990;SDS011;18508;49.386;8.370;2023-06-24T06:09:00;15.30;;;7.93;;
31990;SDS011;18508;49.386;8.370;2023-06-24T06:11:30;11.80;;;6.57;;
31990;SDS011;18508;49.386;8.370;2023-06-24T06:13:58;11.88;;;7.13;;
31990;SDS011;18508;49.386;8.370;2023-06-24T06:16:27;10.00;;;6.50;;
31990;SDS011;18508;49.386;8.370;2023-06-24T06:18:55;8.50;;;5.95;;
31990;SDS011;18508;49.386;8.370;2023-06-24T06:21:25;8.77;;;5.72;;
31990;SDS011;18508;49.386;8.370;2023-06-24T06:23:55;10.18;;;6.03;;
31990;SDS011;18508;49.386;8.370;2023-06-24T06:26:25;8.30;;;5.20;;
31990;SDS011;18508;49.386;8.370;2023-06-24T06:28:53;9.65;;;5.50;;
31990;SDS011;18508;49.386;8.370;2023-06-24T06:31:21;9.93;;;5.68;;
31990;SDS011;18508;49.386;8.370;2023-06-24T06:33:52;7.72;;;5.07;;
31990;SDS011;18508;49.386;8.370;2023-06-24T06:36:20;8.27;;;5.50;;
31990;SDS011;18508;49.386;8.370;2023-06-24T06:38:49;9.52;;;5.20;;
31990;SDS011;18508;49.386;8.370;2023-06-24T06:41:18;10.02;;;5.28;;
31990;SDS011;18508;49.386;8.370;2023-06-24T06:43:51;7.40;;;5.47;;
31990;SDS011;18508;49.386;8.370;2023-06-24T06:46:19;10.10;;;5.40;;
31990;SDS011;18508;49.386;8.370;2023-06-24T06:48:48;8.00;;;5.95;;
31990;SDS011;18508;49.386;8.370;2023-06-24T06:51:16;8.63;;;6.30;;
31990;SDS011;18508;49.386;8.370;2023-06-24T06:53:46;8.43;;;5.30;;
31990;SDS011;18508;49.386;8.370;2023-06-24T06:56:17;10.52;;;6.28;;
31990;SDS011;18508;49.386;8.370;2023-06-24T06:58:51;7.80;;;5.25;;
31990;SDS011;18508;49.386;8.370;2023-06-24T07:01:21;10.05;;;5.80;;
31990;SDS011;18508;49.386;8.370;2023-06-24T07:03:50;7.60;;;5.20;;
31990;SDS011;18508;49.386;8.370;2023-06-24T07:06:19;8.77;;;5.35;;
31990;SDS011;18508;49.386;8.370;2023-06-24T07:08:47;7.45;;;5.43;;
31990;SDS011;18508;49.386;8.370;2023-06-24T07:11:15;8.60;;;4.80;;
31990;SDS011;18508;49.386;8.370;2023-06-24T07:13:45;6.95;;;4.65;;
31990;SDS011;18508;49.386;8.370;2023-06-24T07:16:17;7.38;;;4.70;;
31990;SDS011;18508;49.386;8.370;2023-06-24T07:18:45;7.30;;;5.03;;
31990;SDS011;18508;49.386;8.370;2023-06-24T07:21:14;7.88;;;5.03;;
31990;SDS011;18508;49.386;8.370;2023-06-24T07:23:43;7.00;;;4.60;;
31990;SDS011;18508;49.386;8.370;2023-06-24T07:26:12;6.75;;;4.70;;
31990;SDS011;18508;49.386;8.370;2023-06-24T07:28:40;6.97;;;4.70;;
31990;SDS011;18508;49.386;8.370;2023-06-24T07:31:15;8.52;;;4.68;;
31990;SDS011;18508;49.386;8.370;2023-06-24T07:33:43;9.63;;;5.25;;
31990;SDS011;18508;49.386;8.370;2023-06-24T07:36:12;9.27;;;5.00;;
31990;SDS011;18508;49.386;8.370;2023-06-24T07:38:40;7.88;;;5.25;;
31990;SDS011;18508;49.386;8.370;2023-06-24T07:41:09;9.52;;;4.88;;
31990;SDS011;18508;49.386;8.370;2023-06-24T07:43:37;7.60;;;4.80;;
31990;SDS011;18508;49.386;8.370;2023-06-24T07:46:06;7.63;;;5.03;;
31990;SDS011;18508;49.386;8.370;2023-06-24T07:48:36;7.03;;;4.82;;
31990;SDS011;18508;49.386;8.370;2023-06-24T07:51:06;10.07;;;6.80;;
31990;SDS011;18508;49.386;8.370;2023-06-24T07:53:35;9.93;;;5.22;;
31990;SDS011;18508;49.386;8.370;2023-06-24T07:56:03;7.38;;;4.68;;
31990;SDS011;18508;49.386;8.370;2023-06-24T07:58:33;10.73;;;5.97;;
31990;SDS011;18508;49.386;8.370;2023-06-24T08:01:04;7.55;;;5.38;;
31990;SDS011;18508;49.386;8.370;2023-06-24T08:03:33;6.38;;;4.43;;
31990;SDS011;18508;49.386;8.370;2023-06-24T08:06:04;6.95;;;4.63;;
31990;SDS011;18508;49.386;8.370;2023-06-24T08:08:33;7.22;;;4.47;;
31990;SDS011;18508;49.386;8.370;2023-06-24T08:11:02;6.43;;;4.40;;
31990;SDS011;18508;49.386;8.370;2023-06-24T08:13:31;8.95;;;6.70;;
31990;SDS011;18508;49.386;8.370;2023-06-24T08:15:59;24.80;;;20.15;;
31990;SDS011;18508;49.386;8.370;2023-06-24T08:18:28;8.00;;;5.97;;
31990;SDS011;18508;49.386;8.370;2023-06-24T08:20:56;8.98;;;5.03;;
31990;SDS011;18508;49.386;8.370;2023-06-24T08:23:25;6.60;;;4.85;;
31990;SDS011;18508;49.386;8.370;2023-06-24T08:25:53;6.68;;;4.28;;
31990;SDS011;18508;49.386;8.370;2023-06-24T08:28:41;6.18;;;4.28;;
31990;SDS011;18508;49.386;8.370;2023-06-24T08:31:30;8.02;;;4.15;;
31990;SDS011;18508;49.386;8.370;2023-06-24T08:34:15;6.05;;;4.28;;
31990;SDS011;18508;49.386;8.370;2023-06-24T08:36:45;6.40;;;4.57;;
31990;SDS011;18508;49.386;8.370;2023-06-24T08:39:15;7.93;;;6.35;;
31990;SDS011;18508;49.386;8.370;2023-06-24T08:41:43;12.30;;;7.70;;
31990;SDS011;18508;49.386;8.370;2023-06-24T08:44:11;6.05;;;4.57;;
31990;SDS011;18508;49.386;8.370;2023-06-24T08:46:40;6.68;;;4.10;;
31990;SDS011;18508;49.386;8.370;2023-06-24T08:49:10;6.75;;;4.05;;
31990;SDS011;18508;49.386;8.370;2023-06-24T08:51:49;5.60;;;4.13;;
31990;SDS011;18508;49.386;8.370;2023-06-24T08:54:20;5.70;;;3.85;;
31990;SDS011;18508;49.386;8.370;2023-06-24T08:56:49;6.60;;;3.88;;
31990;SDS011;18508;49.386;8.370;2023-06-24T08:59:18;6.57;;;3.83;;
31990;SDS011;18508;49.386;8.370;2023-06-24T09:01:47;4.90;;;3.33;;
31990;SDS011;18508;49.386;8.370;2023-06-24T09:04:16;5.13;;;3.85;;
31990;SDS011;18508;49.386;8.370;2023-06-24T09:06:46;7.55;;;4.07;;
31990;SDS011;18508;49.386;8.370;2023-06-24T09:09:20;4.78;;;3.70;;
31990;SDS011;18508;49.386;8.370;2023-06-24T09:11:52;6.05;;;3.80;;
31990;SDS011;18508;49.386;8.370;2023-06-24T09:14:21;5.97;;;3.70;;
31990;SDS011;18508;49.386;8.370;2023-06-24T09:16:51;9.60;;;4.30;;
31990;SDS011;18508;49.386;8.370;2023-06-24T09:19:21;6.80;;;3.75;;
31990;SDS011;18508;49.386;8.370;2023-06-24T09:21:49;5.95;;;3.58;;
31990;SDS011;18508;49.386;8.370;2023-06-24T09:24:20;6.70;;;3.88;;
31990;SDS011;18508;49.386;8.370;2023-06-24T09:26:49;6.90;;;3.92;;
31990;SDS011;18508;49.386;8.370;2023-06-24T09:29:17;5.63;;;3.75;;
31990;SDS011;18508;49.386;8.370;2023-06-24T09:31:47;5.55;;;3.75;;
31990;SDS011;18508;49.386;8.370;2023-06-24T09:34:19;6.70;;;3.85;;
31990;SDS011;18508;49.386;8.370;2023-06-24T09:36:51;6.05;;;3.95;;
31990;SDS011;18508;49.386;8.370;2023-06-24T09:39:21;5.53;;;4.05;;
31990;SDS011;18508;49.386;8.370;2023-06-24T09:41:56;6.75;;;4.70;;
31990;SDS011;18508;49.386;8.370;2023-06-24T09:44:24;5.03;;;3.80;;
31990;SDS011;18508;49.386;8.370;2023-06-24T09:46:54;5.13;;;4.10;;
31990;SDS011;18508;49.386;8.370;2023-06-24T09:49:23;5.57;;;3.83;;
31990;SDS011;18508;49.386;8.370;2023-06-24T09:51:54;6.13;;;4.15;;
31990;SDS011;18508;49.386;8.370;2023-06-24T09:54:26;5.10;;;3.90;;
31990;SDS011;18508;49.386;8.370;2023-06-24T09:57:01;6.95;;;3.58;;
31990;SDS011;18508;49.386;8.370;2023-06-24T09:59:30;5.88;;;3.92;;
31990;SDS011;18508;49.386;8.370;2023-06-24T10:02:00;6.70;;;3.67;;
31990;SDS011;18508;49.386;8.370;2023-06-24T10:04:31;5.75;;;3.83;;
31990;SDS011;18508;49.386;8.370;2023-06-24T10:06:59;5.05;;;3.63;;
31990;SDS011;18508;49.386;8.370;2023-06-24T10:09:30;4.97;;;3.55;;
31990;SDS011;18508;49.386;8.370;2023-06-24T10:12:00;5.65;;;3.95;;
31990;SDS011;18508;49.386;8.370;2023-06-24T10:14:28;6.00;;;4.20;;
31990;SDS011;18508;49.386;8.370;2023-06-24T10:17:00;5.45;;;3.67;;
31990;SDS011;18508;49.386;8.370;2023-06-24T10:19:30;5.18;;;3.35;;
31990;SDS011;18508;49.386;8.370;2023-06-24T10:22:09;5.55;;;3.53;;
31990;SDS011;18508;49.386;8.370;2023-06-24T10:24:40;6.10;;;3.85;;
31990;SDS011;18508;49.386;8.370;2023-06-24T10:27:13;5.03;;;3.55;;
31990;SDS011;18508;49.386;8.370;2023-06-24T10:29:44;4.70;;;3.17;;
31990;SDS011;18508;49.386;8.370;2023-06-24T10:32:13;5.18;;;3.25;;
31990;SDS011;18508;49.386;8.370;2023-06-24T10:34:42;5.20;;;3.53;;
31990;SDS011;18508;49.386;8.370;2023-06-24T10:37:12;4.45;;;3.35;;
31990;SDS011;18508;49.386;8.370;2023-06-24T10:39:50;4.57;;;3.47;;
31990;SDS011;18508;49.386;8.370;2023-06-24T10:42:30;6.10;;;3.95;;
31990;SDS011;18508;49.386;8.370;2023-06-24T10:45:01;5.07;;;3.90;;
31990;SDS011;18508;49.386;8.370;2023-06-24T10:47:46;6.00;;;3.63;;
31990;SDS011;18508;49.386;8.370;2023-06-24T10:50:18;4.32;;;3.15;;
31990;SDS011;18508;49.386;8.370;2023-06-24T10:52:47;5.68;;;3.40;;
31990;SDS011;18508;49.386;8.370;2023-06-24T10:55:21;6.90;;;3.72;;
31990;SDS011;18508;49.386;8.370;2023-06-24T10:57:51;6.13;;;3.80;;
31990;SDS011;18508;49.386;8.370;2023-06-24T11:00:19;6.25;;;4.07;;
31990;SDS011;18508;49.386;8.370;2023-06-24T11:02:49;5.93;;;3.92;;
31990;SDS011;18508;49.386;8.370;2023-06-24T11:05:17;5.63;;;3.97;;
31990;SDS011;18508;49.386;8.370;2023-06-24T11:07:45;5.60;;;3.75;;
31990;SDS011;18508;49.386;8.370;2023-06-24T11:10:14;5.88;;;3.78;;
31990;SDS011;18508;49.386;8.370;2023-06-24T11:12:44;6.15;;;3.70;;
31990;SDS011;18508;49.386;8.370;2023-06-24T11:15:13;5.13;;;3.50;;
31990;SDS011;18508;49.386;8.370;2023-06-24T11:17:41;4.78;;;3.10;;
31990;SDS011;18508;49.386;8.370;2023-06-24T11:20:10;5.07;;;3.80;;
31990;SDS011;18508;49.386;8.370;2023-06-24T11:22:41;5.35;;;3.88;;
31990;SDS011;18508;49.386;8.370;2023-06-24T11:25:16;8.40;;;4.00;;
31990;SDS011;18508;49.386;8.370;2023-06-24T11:27:47;4.90;;;3.60;;
31990;SDS011;18508;49.386;8.370;2023-06-24T11:30:17;5.22;;;3.72;;
31990;SDS011;18508;49.386;8.370;2023-06-24T11:32:46;4.80;;;3.42;;
31990;SDS011;18508;49.386;8.370;2023-06-24T11:35:16;4.93;;;3.75;;
31990;SDS011;18508;49.386;8.370;2023-06-24T11:37:45;6.63;;;3.58;;
31990;SDS011;18508;49.386;8.370;2023-06-24T11:40:17;3.97;;;2.97;;
31990;SDS011;18508;49.386;8.370;2023-06-24T11:42:50;5.20;;;3.50;;
31990;SDS011;18508;49.386;8.370;2023-06-24T11:45:20;5.95;;;3.55;;
31990;SDS011;18508;49.386;8.370;2023-06-24T11:47:49;5.30;;;3.70;;
31990;SDS011;18508;49.386;8.370;2023-06-24T11:50:20;5.35;;;3.47;;
31990;SDS011;18508;49.386;8.370;2023-06-24T11:52:54;6.65;;;3.80;;
31990;SDS011;18508;49.386;8.370;2023-06-24T11:55:23;6.88;;;3.67;;
31990;SDS011;18508;49.386;8.370;2023-06-24T11:57:55;4.40;;;3.40;;
31990;SDS011;18508;49.386;8.370;2023-06-24T12:00:24;6.00;;;3.60;;
31990;SDS011;18508;49.386;8.370;2023-06-24T12:02:53;5.00;;;3.05;;
31990;SDS011;18508;49.386;8.370;2023-06-24T12:05:24;4.38;;;3.00;;
31990;SDS011;18508;49.386;8.370;2023-06-24T12:07:55;4.63;;;2.95;;
31990;SDS011;18508;49.386;8.370;2023-06-24T12:10:28;6.35;;;3.80;;
31990;SDS011;18508;49.386;8.370;2023-06-24T12:13:03;4.43;;;3.17;;
31990;SDS011;18508;49.386;8.370;2023-06-24T12:15:33;5.57;;;3.33;;
31990;SDS011;18508;49.386;8.370;2023-06-24T12:18:02;6.10;;;2.95;;
31990;SDS011;18508;49.386;8.370;2023-06-24T12:20:32;5.47;;;3.42;;
31990;SDS011;18508;49.386;8.370;2023-06-24T12:23:04;5.43;;;3.85;;
31990;SDS011;18508;49.386;8.370;2023-06-24T12:25:33;3.78;;;2.90;;
31990;SDS011;18508;49.386;8.370;2023-06-24T12:28:04;3.88;;;2.72;;
31990;SDS011;18508;49.386;8.370;2023-06-24T12:30:33;4.30;;;3.10;;
31990;SDS011;18508;49.386;8.370;2023-06-24T12:33:02;4.30;;;3.10;;
31990;SDS011;18508;49.386;8.370;2023-06-24T12:35:30;6.03;;;3.42;;
31990;SDS011;18508;49.386;8.370;2023-06-24T12:37:58;5.00;;;2.95;;
31990;SDS011;18508;49.386;8.370;2023-06-24T12:40:27;4.55;;;3.35;;
31990;SDS011;18508;49.386;8.370;2023-06-24T12:42:55;5.22;;;3.75;;
31990;SDS011;18508;49.386;8.370;2023-06-24T12:45:25;5.18;;;3.60;;
31990;SDS011;18508;49.386;8.370;2023-06-24T12:47:54;5.50;;;3.33;;
31990;SDS011;18508;49.386;8.370;2023-06-24T12:50:22;5.18;;;3.40;;
31990;SDS011;18508;49.386;8.370;2023-06-24T12:52:50;4.97;;;3.60;;
31990;SDS011;18508;49.386;8.370;2023-06-24T12:55:18;5.45;;;3.42;;
31990;SDS011;18508;49.386;8.370;2023-06-24T12:57:48;5.03;;;3.70;;
31990;SDS011;18508;49.386;8.370;2023-06-24T13:00:18;5.63;;;3.40;;
31990;SDS011;18508;49.386;8.370;2023-06-24T13:02:49;5.38;;;3.95;;
31990;SDS011;18508;49.386;8.370;2023-06-24T13:05:18;4.20;;;3.10;;
31990;SDS011;18508;49.386;8.370;2023-06-24T13:07:47;4.93;;;3.50;;
31990;SDS011;18508;49.386;8.370;2023-06-24T13:10:15;5.65;;;3.95;;
31990;SDS011;18508;49.386;8.370;2023-06-24T13:12:44;6.40;;;3.47;;
31990;SDS011;18508;49.386;8.370;2023-06-24T13:15:12;6.82;;;4.70;;
31990;SDS011;18508;49.386;8.370;2023-06-24T13:17:40;5.63;;;3.42;;
31990;SDS011;18508;49.386;8.370;2023-06-24T13:20:11;5.00;;;3.53;;
31990;SDS011;18508;49.386;8.370;2023-06-24T13:22:40;4.75;;;3.47;;
31990;SDS011;18508;49.386;8.370;2023-06-24T13:25:08;4.68;;;3.20;;
31990;SDS011;18508;49.386;8.370;2023-06-24T13:27:36;6.40;;;3.58;;
31990;SDS011;18508;49.386;8.370;2023-06-24T13:30:07;4.57;;;3.63;;
31990;SDS011;18508;49.386;8.370;2023-06-24T13:32:37;5.68;;;3.47;;
31990;SDS011;18508;49.386;8.370;2023-06-24T13:35:06;5.03;;;3.40;;
31990;SDS011;18508;49.386;8.370;2023-06-24T13:37:36;4.85;;;3.47;;
31990;SDS011;18508;49.386;8.370;2023-06-24T13:40:06;6.60;;;4.43;;
31990;SDS011;18508;49.386;8.370;2023-06-24T13:42:36;4.50;;;3.47;;
31990;SDS011;18508;49.386;8.370;2023-06-24T13:45:04;4.65;;;3.88;;
31990;SDS011;18508;49.386;8.370;2023-06-24T13:47:33;10.95;;;9.25;;
31990;SDS011;18508;49.386;8.370;2023-06-24T13:50:01;4.85;;;3.92;;
31990;SDS011;18508;49.386;8.370;2023-06-24T13:52:30;5.75;;;3.75;;
31990;SDS011;18508;49.386;8.370;2023-06-24T13:54:59;4.03;;;3.58;;
31990;SDS011;18508;49.386;8.370;2023-06-24T13:57:27;5.05;;;3.33;;
31990;SDS011;18508;49.386;8.370;2023-06-24T13:59:55;4.30;;;3.30;;
31990;SDS011;18508;49.386;8.370;2023-06-24T14:02:24;3.83;;;2.80;;
31990;SDS011;18508;49.386;8.370;2023-06-24T14:04:55;5.95;;;4.10;;
31990;SDS011;18508;49.386;8.370;2023-06-24T14:07:23;8.80;;;6.07;;
31990;SDS011;18508;49.386;8.370;2023-06-24T14:09:51;3.90;;;3.03;;
31990;SDS011;18508;49.386;8.370;2023-06-24T14:12:21;4.47;;;3.53;;
31990;SDS011;18508;49.386;8.370;2023-06-24T14:14:50;6.18;;;3.50;;
31990;SDS011;18508;49.386;8.370;2023-06-24T14:17:18;5.85;;;3.45;;
31990;SDS011;18508;49.386;8.370;2023-06-24T14:19:47;4.50;;;3.50;;
31990;SDS011;18508;49.386;8.370;2023-06-24T14:22:16;4.53;;;3.42;;
31990;SDS011;18508;49.386;8.370;2023-06-24T14:24:45;4.00;;;3.10;;
31990;SDS011;18508;49.386;8.370;2023-06-24T14:27:13;6.55;;;3.50;;
31990;SDS011;18508;49.386;8.370;2023-06-24T14:29:42;4.90;;;3.50;;
31990;SDS011;18508;49.386;8.370;2023-06-24T14:32:10;5.07;;;3.67;;
31990;SDS011;18508;49.386;8.370;2023-06-24T14:34:38;7.28;;;3.75;;
31990;SDS011;18508;49.386;8.370;2023-06-24T14:37:07;6.90;;;4.20;;
31990;SDS011;18508;49.386;8.370;2023-06-24T14:39:35;5.07;;;3.58;;
31990;SDS011;18508;49.386;8.370;2023-06-24T14:42:03;5.15;;;4.13;;
31990;SDS011;18508;49.386;8.370;2023-06-24T14:44:31;7.22;;;3.65;;
31990;SDS011;18508;49.386;8.370;2023-06-24T14:47:01;4.82;;;3.75;;
31990;SDS011;18508;49.386;8.370;2023-06-24T14:49:29;5.05;;;3.33;;
31990;SDS011;18508;49.386;8.370;2023-06-24T14:51:58;6.03;;;3.53;;
31990;SDS011;18508;49.386;8.370;2023-06-24T14:54:26;4.15;;;3.50;;
31990;SDS011;18508;49.386;8.370;2023-06-24T14:56:54;3.85;;;3.42;;
31990;SDS011;18508;49.386;8.370;2023-06-24T14:59:22;3.78;;;3.17;;
31990;SDS011;18508;49.386;8.370;2023-06-24T15:01:50;4.85;;;3.55;;
31990;SDS011;18508;49.386;8.370;2023-06-24T15:04:20;3.88;;;3.08;;